sensor_id;sensor_type;location;lat;lon;timestamp;pressure;altitude;pressure_sealevel;temperature;humidity
21504;BME280;10913;51.992;9.228;2023-02-01T00:01:26;100393.00;;;5.10;100.00
21504;BME280;10913;51.992;9.228;2023-02-01T00:03:51;100385.97;;;5.08;100.00
21504;BME280;10913;51.992;9.228;2023-02-01T00:06:17;100382.47;;;5.07;100.00
21504;BME280;10913;51.992;9.228;2023-02-01T00:08:42;100389.41;;;5.04;100.00
21504;BME280;10913;51.992;9.228;2023-02-01T00:11:10;100391.13;;;5.03;100.00
21504;BME280;10913;51.992;9.228;2023-02-01T00:13:37;100384.13;;;5.02;100.00
21504;BME280;10913;51.992;9.228;2023-02-01T00:16:27;100373.63;;;5.01;100.00
21504;BME280;10913;51.992;9.228;2023-02-01T00:18:57;100372.78;;;5.02;100.00
21504;BME280;10913;51.992;9.228;2023-02-01T00:21:23;100380.66;;;5.03;100.00
21504;BME280;10913;51.992;9.228;2023-02-01T00:23:49;100381.56;;;5.05;100.00
21504;BME280;10913;51.992;9.228;2023-02-01T00:26:30;100375.41;;;5.03;100.00
21504;BME280;10913;51.992;9.228;2023-02-01T00:28:55;100378.09;;;5.06;100.00
21504;BME280;10913;51.992;9.228;2023-02-01T00:31:21;100380.66;;;5.03;100.00
21504;BME280;10913;51.992;9.228;2023-02-01T00:33:47;100386.78;;;5.04;100.00
21504;BME280;10913;51.992;9.228;2023-02-01T00:36:13;100389.41;;;5.04;100.00
21504;BME280;10913;51.992;9.228;2023-02-01T00:38:39;100384.19;;;5.05;100.00
21504;BME280;10913;51.992;9.228;2023-02-01T00:41:05;100392.00;;;5.04;100.00
21504;BME280;10913;51.992;9.228;2023-02-01T00:43:32;100385.88;;;5.03;100.00
21504;BME280;10913;51.992;9.228;2023-02-01T00:45:57;100381.50;;;5.02;100.00
21504;BME280;10913;51.992;9.228;2023-02-01T00:48:23;100385.88;;;5.03;100.00
21504;BME280;10913;51.992;9.228;2023-02-01T00:50:48;100386.81;;;5.05;100.00
21504;BME280;10913;51.992;9.228;2023-02-01T00:53:14;100371.94;;;5.04;100.00
21504;BME280;10913;51.992;9.228;2023-02-01T00:55:39;100365.84;;;5.04;100.00
21504;BME280;10913;51.992;9.228;2023-02-01T00:58:05;100365.84;;;5.05;100.00
21504;BME280;10913;51.992;9.228;2023-02-01T01:00:32;100362.34;;;5.05;100.00
21504;BME280;10913;51.992;9.228;2023-02-01T01:02:57;100358.81;;;5.01;100.00
21504;BME280;10913;51.992;9.228;2023-02-01T01:05:23;100355.31;;;5.01;100.00
21504;BME280;10913;51.992;9.228;2023-02-01T01:07:49;100357.91;;;5.01;100.00
21504;BME280;10913;51.992;9.228;2023-02-01T01:10:14;100350.94;;;5.01;100.00
21504;BME280;10913;51.992;9.228;2023-02-01T01:12:40;100363.16;;;5.01;100.00
21504;BME280;10913;51.992;9.228;2023-02-01T01:15:06;100349.19;;;5.00;100.00
21504;BME280;10913;51.992;9.228;2023-02-01T01:17:32;100349.19;;;5.00;100.00
21504;BME280;10913;51.992;9.228;2023-02-01T01:19:57;100351.81;;;4.99;100.00
21504;BME280;10913;51.992;9.228;2023-02-01T01:22:23;100361.41;;;4.98;100.00
21504;BME280;10913;51.992;9.228;2023-02-01T01:24:48;100350.94;;;4.98;100.00
21504;BME280;10913;51.992;9.228;2023-02-01T01:27:13;100360.53;;;5.01;100.00
21504;BME280;10913;51.992;9.228;2023-02-01T01:29:39;100339.59;;;4.99;100.00
21504;BME280;10913;51.992;9.228;2023-02-01T01:32:04;100341.34;;;5.02;100.00
21504;BME280;10913;51.992;9.228;2023-02-01T01:34:29;100343.09;;;5.01;100.00
21504;BME280;10913;51.992;9.228;2023-02-01T01:36:55;100342.25;;;5.02;100.00
21504;BME280;10913;51.992;9.228;2023-02-01T01:39:20;100336.16;;;5.03;100.00
21504;BME280;10913;51.992;9.228;2023-02-01T01:41:46;100349.25;;;5.03;100.00
21504;BME280;10913;51.992;9.228;2023-02-01T01:47:15;100346.63;;;5.03;100.00
21504;BME280;10913;51.992;9.228;2023-02-01T01:49:41;100352.78;;;5.07;100.00
21504;BME280;10913;51.992;9.228;2023-02-01T01:52:07;100338.88;;;5.09;100.00
21504;BME280;10913;51.992;9.228;2023-02-01T01:54:48;100325.72;;;5.06;100.00
21504;BME280;10913;51.992;9.228;2023-02-01T01:57:19;100337.13;;;5.10;100.00
21504;BME280;10913;51.992;9.228;2023-02-01T01:59:55;100338.94;;;5.12;100.00
21504;BME280;10913;51.992;9.228;2023-02-01T02:02:24;100335.47;;;5.13;100.00
21504;BME280;10913;51.992;9.228;2023-02-01T02:04:50;100334.63;;;5.16;100.00
21504;BME280;10913;51.992;9.228;2023-02-01T02:07:22;100329.38;;;5.14;100.00
21504;BME280;10913;51.992;9.228;2023-02-01T02:09:49;100339.84;;;5.14;100.00
21504;BME280;10913;51.992;9.228;2023-02-01T02:12:15;100330.28;;;5.16;100.00
21504;BME280;10913;51.992;9.228;2023-02-01T02:14:40;100331.19;;;5.18;100.00
21504;BME280;10913;51.992;9.228;2023-02-01T02:26:24;100304.16;;;5.23;100.00
21504;BME280;10913;51.992;9.228;2023-02-01T02:29:03;100301.59;;;5.26;100.00
21504;BME280;10913;51.992;9.228;2023-02-01T02:34:48;100295.50;;;5.28;100.00
21504;BME280;10913;51.992;9.228;2023-02-01T02:40:22;100287.72;;;5.31;100.00
21504;BME280;10913;51.992;9.228;2023-02-01T02:46:16;100255.44;;;5.34;100.00
21504;BME280;10913;51.992;9.228;2023-02-01T02:54:56;100258.91;;;5.33;100.00
21504;BME280;10913;51.992;9.228;2023-02-01T03:00:17;100244.09;;;5.35;100.00
21504;BME280;10913;51.992;9.228;2023-02-01T03:03:02;100241.53;;;5.38;100.00
21504;BME280;10913;51.992;9.228;2023-02-01T03:05:48;100231.06;;;5.41;100.00
21504;BME280;10913;51.992;9.228;2023-02-01T03:08:28;100223.22;;;5.42;100.00
21504;BME280;10913;51.992;9.228;2023-02-01T03:10:56;100212.81;;;5.47;100.00
21504;BME280;10913;51.992;9.228;2023-02-01T03:16:13;100207.59;;;5.48;100.00
21504;BME280;10913;51.992;9.228;2023-02-01T03:21:30;100213.72;;;5.49;100.00
21504;BME280;10913;51.992;9.228;2023-02-01T03:24:01;100211.13;;;5.52;100.00
21504;BME280;10913;51.992;9.228;2023-02-01T03:26:28;100212.88;;;5.50;100.00
21504;BME280;10913;51.992;9.228;2023-02-01T03:29:00;100215.50;;;5.51;100.00
21504;BME280;10913;51.992;9.228;2023-02-01T03:31:28;100214.66;;;5.52;100.00
21504;BME280;10913;51.992;9.228;2023-02-01T03:33:54;100208.53;;;5.53;100.00
21504;BME280;10913;51.992;9.228;2023-02-01T03:36:39;100208.56;;;5.55;100.00
21504;BME280;10913;51.992;9.228;2023-02-01T03:39:22;100202.41;;;5.53;100.00
21504;BME280;10913;51.992;9.228;2023-02-01T03:41:56;100205.94;;;5.53;100.00
21504;BME280;10913;51.992;9.228;2023-02-01T03:44:32;100196.31;;;5.54;100.00
21504;BME280;10913;51.992;9.228;2023-02-01T03:47:16;100197.19;;;5.54;100.00
21504;BME280;10913;51.992;9.228;2023-02-01T03:49:52;100187.59;;;5.53;100.00
21504;BME280;10913;51.992;9.228;2023-02-01T03:52:29;100163.13;;;5.54;100.00
21504;BME280;10913;51.992;9.228;2023-02-01T03:54:56;100163.13;;;5.53;100.00
21504;BME280;10913;51.992;9.228;2023-02-01T03:57:27;100171.88;;;5.53;100.00
21504;BME280;10913;51.992;9.228;2023-02-01T04:00:05;100169.22;;;5.52;100.00
21504;BME280;10913;51.992;9.228;2023-02-01T04:02:30;100179.69;;;5.52;100.00
21504;BME280;10913;51.992;9.228;2023-02-01T04:04:56;100170.09;;;5.52;100.00
21504;BME280;10913;51.992;9.228;2023-02-01T04:07:21;100173.59;;;5.53;100.00
21504;BME280;10913;51.992;9.228;2023-02-01T04:09:46;100166.63;;;5.53;100.00
21504;BME280;10913;51.992;9.228;2023-02-01T04:12:12;100161.38;;;5.53;99.79
21504;BME280;10913;51.992;9.228;2023-02-01T04:14:37;100159.66;;;5.54;100.00
21504;BME280;10913;51.992;9.228;2023-02-01T04:17:02;100154.41;;;5.56;100.00
21504;BME280;10913;51.992;9.228;2023-02-01T04:19:28;100147.44;;;5.56;99.58
21504;BME280;10913;51.992;9.228;2023-02-01T04:21:53;100138.75;;;5.59;99.48
21504;BME280;10913;51.992;9.228;2023-02-01T04:24:19;100146.59;;;5.59;99.93
21504;BME280;10913;51.992;9.228;2023-02-01T04:26:44;100136.13;;;5.59;98.80
21504;BME280;10913;51.992;9.228;2023-02-01T04:29:09;100140.47;;;5.61;99.14
21504;BME280;10913;51.992;9.228;2023-02-01T04:31:35;100131.75;;;5.62;98.01
21504;BME280;10913;51.992;9.228;2023-02-01T04:34:01;100138.75;;;5.63;98.49
21504;BME280;10913;51.992;9.228;2023-02-01T04:36:26;100127.41;;;5.63;99.06
21504;BME280;10913;51.992;9.228;2023-02-01T04:38:52;100136.13;;;5.62;99.97
21504;BME280;10913;51.992;9.228;2023-02-01T04:41:18;100128.28;;;5.63;99.95
21504;BME280;10913;51.992;9.228;2023-02-01T04:43:48;100132.63;;;5.63;100.00
21504;BME280;10913;51.992;9.228;2023-02-01T04:46:14;100129.13;;;5.62;100.00
21504;BME280;10913;51.992;9.228;2023-02-01T04:48:40;100126.50;;;5.61;100.00
21504;BME280;10913;51.992;9.228;2023-02-01T04:51:05;100104.69;;;5.59;100.00
21504;BME280;10913;51.992;9.228;2023-02-01T04:53:31;100108.16;;;5.58;100.00
21504;BME280;10913;51.992;9.228;2023-02-01T04:55:57;100128.25;;;5.60;100.00
21504;BME280;10913;51.992;9.228;2023-02-01T04:58:22;100124.75;;;5.61;100.00
21504;BME280;10913;51.992;9.228;2023-02-01T05:00:47;100126.50;;;5.61;100.00
21504;BME280;10913;51.992;9.228;2023-02-01T05:03:13;100118.63;;;5.61;100.00
21504;BME280;10913;51.992;9.228;2023-02-01T05:05:38;100112.53;;;5.59;100.00
21504;BME280;10913;51.992;9.228;2023-02-01T05:08:04;100109.03;;;5.61;100.00
21504;BME280;10913;51.992;9.228;2023-02-01T05:10:29;100107.28;;;5.62;100.00
21504;BME280;10913;51.992;9.228;2023-02-01T05:12:54;100121.28;;;5.62;100.00
21504;BME280;10913;51.992;9.228;2023-02-01T05:15:38;100109.03;;;5.61;100.00
21504;BME280;10913;51.992;9.228;2023-02-01T05:18:04;100107.28;;;5.60;100.00
21504;BME280;10913;51.992;9.228;2023-02-01T05:20:29;100112.50;;;5.57;100.00
21504;BME280;10913;51.992;9.228;2023-02-01T05:22:55;100106.34;;;5.53;100.00
21504;BME280;10913;51.992;9.228;2023-02-01T05:25:20;100096.75;;;5.52;100.00
21504;BME280;10913;51.992;9.228;2023-02-01T05:27:46;100112.44;;;5.51;100.00
21504;BME280;10913;51.992;9.228;2023-02-01T05:30:11;100114.16;;;5.47;100.00
21504;BME280;10913;51.992;9.228;2023-02-01T05:32:37;100114.13;;;5.46;100.00
21504;BME280;10913;51.992;9.228;2023-02-01T05:35:02;100102.75;;;5.44;100.00
21504;BME280;10913;51.992;9.228;2023-02-01T05:37:28;100104.47;;;5.42;100.00
21504;BME280;10913;51.992;9.228;2023-02-01T05:39:53;100100.09;;;5.41;100.00
21504;BME280;10913;51.992;9.228;2023-02-01T05:42:21;100110.56;;;5.38;100.00
21504;BME280;10913;51.992;9.228;2023-02-01T05:44:46;100093.97;;;5.37;100.00
21504;BME280;10913;51.992;9.228;2023-02-01T05:47:12;100094.81;;;5.36;100.00
21504;BME280;10913;51.992;9.228;2023-02-01T05:49:37;100104.41;;;5.34;100.00
21504;BME280;10913;51.992;9.228;2023-02-01T05:52:04;100114.00;;;5.34;100.00
21504;BME280;10913;51.992;9.228;2023-02-01T05:54:29;100110.53;;;5.35;100.00
21504;BME280;10913;51.992;9.228;2023-02-01T05:56:54;100103.53;;;5.34;100.00
21504;BME280;10913;51.992;9.228;2023-02-01T05:59:20;100104.38;;;5.33;100.00
21504;BME280;10913;51.992;9.228;2023-02-01T06:01:45;100095.66;;;5.32;100.00
21504;BME280;10913;51.992;9.228;2023-02-01T06:04:11;100097.38;;;5.32;100.00
21504;BME280;10913;51.992;9.228;2023-02-01T06:06:36;100088.66;;;5.33;100.00
21504;BME280;10913;51.992;9.228;2023-02-01T06:09:02;100093.00;;;5.31;100.00
21504;BME280;10913;51.992;9.228;2023-02-01T06:11:28;100081.63;;;5.27;100.00
21504;BME280;10913;51.992;9.228;2023-02-01T06:13:54;100091.22;;;5.28;100.00
21504;BME280;10913;51.992;9.228;2023-02-01T06:16:20;100072.94;;;5.31;100.00
21504;BME280;10913;51.992;9.228;2023-02-01T06:18:46;100075.56;;;5.31;100.00
21504;BME280;10913;51.992;9.228;2023-02-01T06:21:11;100082.53;;;5.31;100.00
21504;BME280;10913;51.992;9.228;2023-02-01T06:23:38;100082.50;;;5.28;100.00
21504;BME280;10913;51.992;9.228;2023-02-01T06:26:05;100074.66;;;5.29;100.00
21504;BME280;10913;51.992;9.228;2023-02-01T06:28:33;100079.03;;;5.29;100.00
21504;BME280;10913;51.992;9.228;2023-02-01T06:31:03;100076.41;;;5.29;100.00
21504;BME280;10913;51.992;9.228;2023-02-01T06:33:28;100079.03;;;5.29;100.00
21504;BME280;10913;51.992;9.228;2023-02-01T06:35:58;100066.81;;;5.31;100.00
21504;BME280;10913;51.992;9.228;2023-02-01T06:38:25;100073.81;;;5.30;100.00
21504;BME280;10913;51.992;9.228;2023-02-01T06:40:55;100082.53;;;5.31;100.00
21504;BME280;10913;51.992;9.228;2023-02-01T06:43:25;100087.78;;;5.31;100.00
21504;BME280;10913;51.992;9.228;2023-02-01T06:45:51;100086.91;;;5.32;100.00
21504;BME280;10913;51.992;9.228;2023-02-01T06:48:17;100087.81;;;5.34;100.00
21504;BME280;10913;51.992;9.228;2023-02-01T06:50:43;100100.91;;;5.34;100.00
21504;BME280;10913;51.992;9.228;2023-02-01T06:53:09;100099.19;;;5.36;100.00
21504;BME280;10913;51.992;9.228;2023-02-01T06:55:34;100095.72;;;5.37;100.00
21504;BME280;10913;51.992;9.228;2023-02-01T06:58:00;100103.56;;;5.37;100.00
21504;BME280;10913;51.992;9.228;2023-02-01T07:00:28;100107.09;;;5.39;100.00
21504;BME280;10913;51.992;9.228;2023-02-01T07:02:53;100103.56;;;5.40;100.00
21504;BME280;10913;51.992;9.228;2023-02-01T07:05:19;100108.81;;;5.40;100.00
21504;BME280;10913;51.992;9.228;2023-02-01T07:07:44;100126.28;;;5.41;100.00
21504;BME280;10913;51.992;9.228;2023-02-01T07:10:10;100129.81;;;5.43;100.00
21504;BME280;10913;51.992;9.228;2023-02-01T07:12:35;100121.03;;;5.41;100.00
21504;BME280;10913;51.992;9.228;2023-02-01T07:15:02;100131.53;;;5.41;100.00
21504;BME280;10913;51.992;9.228;2023-02-01T07:17:28;100135.00;;;5.40;100.00
21504;BME280;10913;51.992;9.228;2023-02-01T07:19:54;100132.41;;;5.41;100.00
21504;BME280;10913;51.992;9.228;2023-02-01T07:22:20;100119.28;;;5.40;100.00
21504;BME280;10913;51.992;9.228;2023-02-01T07:24:45;100131.53;;;5.38;100.00
21504;BME280;10913;51.992;9.228;2023-02-01T07:27:11;100130.63;;;5.37;100.00
21504;BME280;10913;51.992;9.228;2023-02-01T07:29:36;100137.63;;;5.37;100.00
21504;BME280;10913;51.992;9.228;2023-02-01T07:32:01;100147.22;;;5.38;100.00
21504;BME280;10913;51.992;9.228;2023-02-01T07:34:27;100143.75;;;5.40;100.00
21504;BME280;10913;51.992;9.228;2023-02-01T07:36:53;100143.75;;;5.39;100.00
21504;BME280;10913;51.992;9.228;2023-02-01T07:39:18;100155.09;;;5.38;100.00
21504;BME280;10913;51.992;9.228;2023-02-01T07:41:45;100148.09;;;5.40;100.00
21504;BME280;10913;51.992;9.228;2023-02-01T07:44:11;100135.03;;;5.38;100.00
21504;BME280;10913;51.992;9.228;2023-02-01T07:46:36;100140.25;;;5.40;100.00
21504;BME280;10913;51.992;9.228;2023-02-01T07:49:03;100145.47;;;5.40;100.00
21504;BME280;10913;51.992;9.228;2023-02-01T07:51:29;100132.38;;;5.40;100.00
21504;BME280;10913;51.992;9.228;2023-02-01T07:53:54;100150.75;;;5.43;100.00
21504;BME280;10913;51.992;9.228;2023-02-01T07:56:20;100144.66;;;5.44;100.00
21504;BME280;10913;51.992;9.228;2023-02-01T07:58:51;100153.44;;;5.47;100.00
21504;BME280;10913;51.992;9.228;2023-02-01T08:01:20;100149.97;;;5.48;100.00
21504;BME280;10913;51.992;9.228;2023-02-01T08:04:04;100155.19;;;5.48;100.00
21504;BME280;10913;51.992;9.228;2023-02-01T08:06:32;100156.09;;;5.49;100.00
21504;BME280;10913;51.992;9.228;2023-02-01T08:09:00;100159.59;;;5.51;100.00
21504;BME280;10913;51.992;9.228;2023-02-01T08:11:26;100148.25;;;5.52;100.00
21504;BME280;10913;51.992;9.228;2023-02-01T08:13:52;100160.53;;;5.56;100.00
21504;BME280;10913;51.992;9.228;2023-02-01T08:16:18;100158.81;;;5.57;100.00
21504;BME280;10913;51.992;9.228;2023-02-01T08:18:45;100162.31;;;5.57;100.00
21504;BME280;10913;51.992;9.228;2023-02-01T08:21:13;100171.94;;;5.61;100.00
21504;BME280;10913;51.992;9.228;2023-02-01T08:23:40;100164.97;;;5.63;100.00
21504;BME280;10913;51.992;9.228;2023-02-01T08:28:31;100174.63;;;5.67;100.00
21504;BME280;10913;51.992;9.228;2023-02-01T08:30:57;100176.38;;;5.68;100.00
21504;BME280;10913;51.992;9.228;2023-02-01T08:33:22;100179.03;;;5.71;100.00
21504;BME280;10913;51.992;9.228;2023-02-01T08:35:47;100172.97;;;5.74;100.00
21504;BME280;10913;51.992;9.228;2023-02-01T08:38:13;100172.97;;;5.74;100.00
21504;BME280;10913;51.992;9.228;2023-02-01T08:40:38;100179.13;;;5.77;100.00
21504;BME280;10913;51.992;9.228;2023-02-01T08:43:07;100171.25;;;5.80;100.00
21504;BME280;10913;51.992;9.228;2023-02-01T08:45:32;100176.53;;;5.82;100.00
21504;BME280;10913;51.992;9.228;2023-02-01T08:47:58;100173.94;;;5.86;100.00
21504;BME280;10913;51.992;9.228;2023-02-01T08:50:24;100183.69;;;5.94;100.00
21504;BME280;10913;51.992;9.228;2023-02-01T08:52:50;100176.75;;;6.02;100.00
21504;BME280;10913;51.992;9.228;2023-02-01T08:55:16;100170.78;;;6.15;100.00
21504;BME280;10913;51.992;9.228;2023-02-01T08:57:41;100169.25;;;6.44;100.00
21504;BME280;10913;51.992;9.228;2023-02-01T09:00:09;100172.91;;;6.65;100.00
21504;BME280;10913;51.992;9.228;2023-02-01T09:02:35;100170.31;;;6.68;99.71
21504;BME280;10913;51.992;9.228;2023-02-01T09:05:01;100164.19;;;6.69;99.67
21504;BME280;10913;51.992;9.228;2023-02-01T09:07:26;100163.38;;;6.76;99.43
21504;BME280;10913;51.992;9.228;2023-02-01T09:09:51;100182.59;;;6.70;98.71
21504;BME280;10913;51.992;9.228;2023-02-01T09:12:19;100173.91;;;6.79;98.96
21504;BME280;10913;51.992;9.228;2023-02-01T09:14:45;100172.94;;;6.68;99.13
21504;BME280;10913;51.992;9.228;2023-02-01T09:17:10;100175.50;;;6.60;99.70
21504;BME280;10913;51.992;9.228;2023-02-01T09:19:35;100185.97;;;6.55;100.00
21504;BME280;10913;51.992;9.228;2023-02-01T09:22:01;100186.84;;;6.54;100.00
21504;BME280;10913;51.992;9.228;2023-02-01T09:24:26;100185.06;;;6.49;100.00
21504;BME280;10913;51.992;9.228;2023-02-01T09:26:52;100188.53;;;6.46;100.00
21504;BME280;10913;51.992;9.228;2023-02-01T09:29:18;100199.88;;;6.44;100.00
21504;BME280;10913;51.992;9.228;2023-02-01T09:31:43;100193.75;;;6.43;100.00
21504;BME280;10913;51.992;9.228;2023-02-01T09:34:08;100199.84;;;6.42;100.00
21504;BME280;10913;51.992;9.228;2023-02-01T09:36:34;100191.97;;;6.39;100.00
21504;BME280;10913;51.992;9.228;2023-02-01T09:39:00;100190.22;;;6.38;100.00
21504;BME280;10913;51.992;9.228;2023-02-01T09:41:43;100176.25;;;6.44;100.00
21504;BME280;10913;51.992;9.228;2023-02-01T09:46:57;100190.38;;;6.56;99.44
21504;BME280;10913;51.992;9.228;2023-02-01T09:49:29;100179.88;;;6.56;98.53
21504;BME280;10913;51.992;9.228;2023-02-01T09:51:55;100189.47;;;6.54;98.00
21504;BME280;10913;51.992;9.228;2023-02-01T09:54:25;100185.09;;;6.53;98.39
21504;BME280;10913;51.992;9.228;2023-02-01T09:56:58;100198.31;;;6.67;98.76
21504;BME280;10913;51.992;9.228;2023-02-01T09:59:42;100195.69;;;6.69;98.80
21504;BME280;10913;51.992;9.228;2023-02-01T10:02:27;100175.53;;;6.66;98.40
21504;BME280;10913;51.992;9.228;2023-02-01T10:04:59;100186.06;;;6.66;98.33
21504;BME280;10913;51.992;9.228;2023-02-01T10:07:56;100195.63;;;6.60;98.78
21504;BME280;10913;51.992;9.228;2023-02-01T10:10:30;100186.88;;;6.57;98.59
21504;BME280;10913;51.992;9.228;2023-02-01T10:26:17;100190.38;;;6.56;98.47
21504;BME280;10913;51.992;9.228;2023-02-01T10:28:46;100188.59;;;6.54;97.84
21504;BME280;10913;51.992;9.228;2023-02-01T10:31:13;100184.22;;;6.54;98.57
21504;BME280;10913;51.992;9.228;2023-02-01T10:33:52;100192.09;;;6.54;98.54
21504;BME280;10913;51.992;9.228;2023-02-01T10:36:29;100167.63;;;6.55;97.71
21504;BME280;10913;51.992;9.228;2023-02-01T10:38:58;100178.13;;;6.59;97.23
21504;BME280;10913;51.992;9.228;2023-02-01T10:41:30;100173.75;;;6.61;97.50
21504;BME280;10913;51.992;9.228;2023-02-01T10:43:58;100164.13;;;6.60;97.28
21504;BME280;10913;51.992;9.228;2023-02-01T10:46:25;100161.50;;;6.60;96.60
21504;BME280;10913;51.992;9.228;2023-02-01T10:48:52;100145.75;;;6.61;95.46
21504;BME280;10913;51.992;9.228;2023-02-01T10:51:27;100157.16;;;6.65;94.94
21504;BME280;10913;51.992;9.228;2023-02-01T10:53:58;100145.84;;;6.70;95.43
21504;BME280;10913;51.992;9.228;2023-02-01T10:56:27;100137.13;;;6.74;95.82
21504;BME280;10913;51.992;9.228;2023-02-01T10:59:03;100142.34;;;6.71;95.48
21504;BME280;10913;51.992;9.228;2023-02-01T11:01:42;100149.31;;;6.69;95.34
21504;BME280;10913;51.992;9.228;2023-02-01T11:04:12;100159.81;;;6.66;95.75
21504;BME280;10913;51.992;9.228;2023-02-01T11:06:40;100141.38;;;6.62;95.94
21504;BME280;10913;51.992;9.228;2023-02-01T11:11:33;100138.72;;;6.52;96.68
21504;BME280;10913;51.992;9.228;2023-02-01T11:14:27;100143.06;;;6.49;96.94
21504;BME280;10913;51.992;9.228;2023-02-01T11:17:17;100127.31;;;6.47;96.70
21504;BME280;10913;51.992;9.228;2023-02-01T11:20:00;100136.94;;;6.48;96.47
21504;BME280;10913;51.992;9.228;2023-02-01T11:22:26;100126.44;;;6.50;96.89
21504;BME280;10913;51.992;9.228;2023-02-01T11:24:53;100116.84;;;6.50;97.46
21504;BME280;10913;51.992;9.228;2023-02-01T11:27:21;100118.59;;;6.51;96.92
21504;BME280;10913;51.992;9.228;2023-02-01T11:29:51;100101.97;;;6.52;97.33
21504;BME280;10913;51.992;9.228;2023-02-01T11:32:19;100103.75;;;6.56;97.15
21504;BME280;10913;51.992;9.228;2023-02-01T11:34:46;100100.25;;;6.56;97.63
21504;BME280;10913;51.992;9.228;2023-02-01T11:37:34;100098.50;;;6.55;97.14
21504;BME280;10913;51.992;9.228;2023-02-01T11:42:53;100079.25;;;6.56;97.06
21504;BME280;10913;51.992;9.228;2023-02-01T11:45:30;100080.13;;;6.60;96.10
21504;BME280;10913;51.992;9.228;2023-02-01T11:47:57;100061.78;;;6.61;96.62
21504;BME280;10913;51.992;9.228;2023-02-01T11:50:35;100065.28;;;6.62;97.29
21504;BME280;10913;51.992;9.228;2023-02-01T11:56:04;100044.28;;;6.63;96.78
21504;BME280;10913;51.992;9.228;2023-02-01T12:09:45;100028.56;;;6.68;97.62
21504;BME280;10913;51.992;9.228;2023-02-01T12:18:39;100016.34;;;6.71;98.37
21504;BME280;10913;51.992;9.228;2023-02-01T12:32:04;100004.94;;;6.59;100.00
21504;BME280;10913;51.992;9.228;2023-02-01T12:43:00;100006.59;;;6.44;100.00
21504;BME280;10913;51.992;9.228;2023-02-01T12:45:50;99994.31;;;6.40;100.00
21504;BME280;10913;51.992;9.228;2023-02-01T12:51:33;99993.34;;;6.23;100.00
21504;BME280;10913;51.992;9.228;2023-02-01T13:02:08;99953.09;;;6.13;100.00
21504;BME280;10913;51.992;9.228;2023-02-01T13:07:41;99946.94;;;6.08;100.00
21504;BME280;10913;51.992;9.228;2023-02-01T13:10:16;99979.25;;;6.06;100.00
21504;BME280;10913;51.992;9.228;2023-02-01T13:12:51;99956.53;;;6.05;100.00
21504;BME280;10913;51.992;9.228;2023-02-01T13:15:23;99956.53;;;6.06;100.00
21504;BME280;10913;51.992;9.228;2023-02-01T13:17:51;99960.94;;;6.10;100.00
21504;BME280;10913;51.992;9.228;2023-02-01T13:20:35;99962.72;;;6.14;100.00
21504;BME280;10913;51.992;9.228;2023-02-01T13:25:46;99957.44;;;6.08;100.00
21504;BME280;10913;51.992;9.228;2023-02-01T13:28:18;99952.16;;;6.07;100.00
21504;BME280;10913;51.992;9.228;2023-02-01T13:30:50;99955.66;;;6.04;100.00
21504;BME280;10913;51.992;9.228;2023-02-01T13:33:25;99950.38;;;6.00;100.00
21504;BME280;10913;51.992;9.228;2023-02-01T13:41:51;99950.34;;;5.94;100.00
21504;BME280;10913;51.992;9.228;2023-02-01T13:44:38;99966.09;;;5.94;100.00
21504;BME280;10913;51.992;9.228;2023-02-01T13:47:22;99960.00;;;5.96;100.00
21504;BME280;10913;51.992;9.228;2023-02-01T13:49:49;99960.00;;;5.96;100.00
21504;BME280;10913;51.992;9.228;2023-02-01T13:52:25;99932.88;;;5.93;100.00
21504;BME280;10913;51.992;9.228;2023-02-01T13:55:02;99929.38;;;5.94;100.00
21504;BME280;10913;51.992;9.228;2023-02-01T13:57:36;99912.81;;;5.99;100.00
21504;BME280;10913;51.992;9.228;2023-02-01T14:13:33;99908.53;;;6.15;100.00
21504;BME280;10913;51.992;9.228;2023-02-01T14:21:23;99921.66;;;6.16;100.00
21504;BME280;10913;51.992;9.228;2023-02-01T14:26:58;99952.25;;;6.20;100.00
21504;BME280;10913;51.992;9.228;2023-02-01T14:32:17;99955.78;;;6.27;100.00
21504;BME280;10913;51.992;9.228;2023-02-01T14:42:43;100011.75;;;6.29;100.00
21504;BME280;10913;51.992;9.228;2023-02-01T14:47:51;99961.91;;;6.29;100.00
21504;BME280;10913;51.992;9.228;2023-02-01T14:58:46;100000.41;;;6.33;100.00
21504;BME280;10913;51.992;9.228;2023-02-01T15:09:07;100014.41;;;6.34;100.00
21504;BME280;10913;51.992;9.228;2023-02-01T15:14:18;100014.44;;;6.37;100.00
21504;BME280;10913;51.992;9.228;2023-02-01T15:16:43;100022.31;;;6.38;100.00
21504;BME280;10913;51.992;9.228;2023-02-01T15:19:15;100010.06;;;6.40;100.00
21504;BME280;10913;51.992;9.228;2023-02-01T15:21:46;100026.66;;;6.41;100.00
21504;BME280;10913;51.992;9.228;2023-02-01T15:24:20;100015.28;;;6.40;100.00
21504;BME280;10913;51.992;9.228;2023-02-01T15:26:46;100016.19;;;6.39;100.00
21504;BME280;10913;51.992;9.228;2023-02-01T15:29:12;100016.19;;;6.41;100.00
21504;BME280;10913;51.992;9.228;2023-02-01T15:31:44;100030.16;;;6.40;100.00
21504;BME280;10913;51.992;9.228;2023-02-01T15:34:10;100019.69;;;6.38;100.00
21504;BME280;10913;51.992;9.228;2023-02-01T15:36:36;100024.91;;;6.35;100.00
21504;BME280;10913;51.992;9.228;2023-02-01T15:41:53;100058.97;;;6.29;100.00
21504;BME280;10913;51.992;9.228;2023-02-01T15:46:54;100066.81;;;6.26;100.00
21504;BME280;10913;51.992;9.228;2023-02-01T15:49:31;100063.28;;;6.22;100.00
21504;BME280;10913;51.992;9.228;2023-02-01T15:54:34;100072.03;;;6.21;100.00
21504;BME280;10913;51.992;9.228;2023-02-01T15:57:03;100058.03;;;6.18;100.00
21504;BME280;10913;51.992;9.228;2023-02-01T15:59:44;100061.50;;;6.20;100.00
21504;BME280;10913;51.992;9.228;2023-02-01T16:05:01;100069.38;;;6.14;100.00
21504;BME280;10913;51.992;9.228;2023-02-01T16:07:29;100064.97;;;6.13;100.00
21504;BME280;10913;51.992;9.228;2023-02-01T16:09:58;100064.97;;;6.11;100.00